Time;durP1;ratioP1;P1;durP2;ratioP2;P2;SDS_P1;SDS_P2;PMS_P1;PMS_P2;Temp;Humidity;BMP_temperature;BMP_pressure;BME280_temperature;BME280_humidity;BME280_pressure;Samples;Min_cycle;Max_cycle;Signal;HPM_P1;HPM_P2
2024/02/07 00:01:22;;;;;;;10.38;3.95;;;1.60;99.90;;;;;;5052313;28;20028;-73
2024/02/07 00:03:48;;;;;;;5.40;4.07;;;1.50;99.90;;;;;;5053851;28;20433;-73
2024/02/07 00:06:16;;;;;;;14.98;4.88;;;1.50;99.90;;;;;;5053492;28;20033;-73
2024/02/07 00:08:42;;;;;;;9.55;4.07;;;1.50;99.90;;;;;;5053738;28;20487;-73
2024/02/07 00:11:07;;;;;;;12.07;5.68;;;1.40;99.90;;;;;;5053308;28;20064;-73
2024/02/07 00:13:33;;;;;;;11.02;4.47;;;1.40;99.90;;;;;;5053778;28;20111;-74
2024/02/07 00:15:59;;;;;;;8.55;4.70;;;1.40;99.90;;;;;;5052113;28;20028;-73
2024/02/07 00:18:25;;;;;;;7.97;4.72;;;1.40;99.90;;;;;;5052893;28;20017;-73
2024/02/07 00:20:51;;;;;;;6.30;3.60;;;1.40;99.90;;;;;;5052275;28;20029;-74
2024/02/07 00:23:17;;;;;;;6.75;3.42;;;1.40;99.90;;;;;;5052323;28;20108;-73
2024/02/07 00:25:43;;;;;;;13.13;4.43;;;1.30;99.90;;;;;;5053353;28;20091;-75
2024/02/07 00:28:09;;;;;;;7.85;3.53;;;1.30;99.90;;;;;;5051745;28;20024;-74
2024/02/07 00:30:35;;;;;;;9.48;4.20;;;1.30;99.90;;;;;;5053021;28;20510;-74
2024/02/07 00:33:02;;;;;;;6.80;3.65;;;1.40;99.90;;;;;;5051757;28;20521;-74
2024/02/07 00:35:28;;;;;;;7.45;3.80;;;1.30;99.90;;;;;;5051981;28;20029;-73
2024/02/07 00:37:53;;;;;;;9.50;4.63;;;1.30;99.90;;;;;;5053186;28;20100;-74
2024/02/07 00:40:19;;;;;;;16.75;5.75;;;1.30;99.90;;;;;;5052997;28;20106;-73
2024/02/07 00:42:46;;;;;;;14.50;6.53;;;1.30;99.90;;;;;;5053489;28;20032;-74
2024/02/07 00:45:12;;;;;;;10.63;4.75;;;1.30;99.90;;;;;;5053197;28;20032;-73
2024/02/07 00:47:39;;;;;;;12.13;5.15;;;1.30;99.90;;;;;;5052953;28;20028;-74
2024/02/07 00:50:05;;;;;;;9.73;4.95;;;1.20;99.90;;;;;;5051469;28;20115;-74
2024/02/07 00:52:30;;;;;;;10.55;4.75;;;1.20;99.90;;;;;;5052636;28;20469;-74
2024/02/07 00:54:56;;;;;;;10.85;5.03;;;1.20;99.90;;;;;;5052959;28;20013;-74
2024/02/07 00:57:21;;;;;;;6.15;3.60;;;1.30;99.90;;;;;;5052973;28;20021;-74
2024/02/07 00:59:47;;;;;;;7.80;4.13;;;1.20;99.90;;;;;;5052333;28;20025;-74
2024/02/07 01:02:14;;;;;;;7.55;4.90;;;1.20;99.90;;;;;;5052551;28;20017;-74
2024/02/07 01:04:40;;;;;;;5.85;3.53;;;1.20;99.90;;;;;;5052851;28;20025;-74
2024/02/07 01:07:07;;;;;;;8.15;3.78;;;1.10;99.90;;;;;;5052728;28;20024;-74
2024/02/07 01:09:34;;;;;;;8.13;4.00;;;1.10;99.90;;;;;;5052217;28;20017;-74
2024/02/07 01:12:01;;;;;;;7.18;3.65;;;1.10;99.90;;;;;;5052858;28;20025;-74
2024/02/07 01:14:26;;;;;;;5.30;3.25;;;1.00;99.90;;;;;;5052803;28;20501;-73
2024/02/07 01:16:52;;;;;;;8.35;4.03;;;1.10;99.90;;;;;;5052707;28;20056;-73
2024/02/07 01:19:18;;;;;;;9.98;4.53;;;1.00;99.90;;;;;;5052417;28;20027;-73
2024/02/07 01:21:43;;;;;;;9.80;3.65;;;1.00;99.90;;;;;;5051496;28;20033;-73
2024/02/07 01:24:09;;;;;;;13.35;4.60;;;1.00;99.90;;;;;;5052618;28;20036;-74
2024/02/07 01:26:35;;;;;;;9.65;3.72;;;0.90;99.90;;;;;;5051170;28;20029;-74
2024/02/07 01:29:02;;;;;;;6.95;3.97;;;0.90;99.90;;;;;;5052145;28;20426;-73
2024/02/07 01:31:28;;;;;;;12.40;8.02;;;0.80;99.90;;;;;;5052304;28;20475;-74
2024/02/07 01:33:55;;;;;;;7.13;4.82;;;0.80;99.90;;;;;;5052240;28;20036;-74
2024/02/07 01:36:22;;;;;;;7.57;3.47;;;0.80;99.90;;;;;;5052360;28;20024;-74
2024/02/07 01:38:48;;;;;;;7.63;3.20;;;0.80;99.90;;;;;;5052287;28;20089;-74
2024/02/07 01:41:15;;;;;;;5.15;3.60;;;0.80;99.90;;;;;;5050608;28;20029;-74
2024/02/07 01:43:41;;;;;;;11.38;4.95;;;0.70;99.90;;;;;;5052851;28;20110;-74
2024/02/07 01:46:07;;;;;;;12.52;3.50;;;0.70;99.90;;;;;;5052355;28;20483;-75
2024/02/07 01:48:33;;;;;;;6.65;4.35;;;0.70;99.90;;;;;;5052326;28;20021;-73
2024/02/07 01:51:02;;;;;;;7.53;4.25;;;0.70;99.90;;;;;;5051692;28;20171;-73
2024/02/07 01:53:28;;;;;;;6.43;3.50;;;0.80;99.90;;;;;;5050871;28;20402;-73
2024/02/07 01:55:57;;;;;;;6.72;4.57;;;0.60;99.90;;;;;;5052143;28;20044;-73
2024/02/07 01:58:26;;;;;;;10.27;5.90;;;0.60;99.90;;;;;;5050850;28;20029;-73
2024/02/07 02:00:52;;;;;;;12.90;6.22;;;0.50;99.90;;;;;;5052039;28;20087;-73
2024/02/07 02:03:17;;;;;;;8.75;5.32;;;0.50;99.90;;;;;;5052083;28;20494;-73
2024/02/07 02:05:43;;;;;;;11.82;4.82;;;0.50;99.90;;;;;;5050900;28;20056;-74
2024/02/07 02:08:10;;;;;;;9.07;5.75;;;0.50;99.90;;;;;;5051984;28;20028;-73
2024/02/07 02:10:36;;;;;;;7.20;5.47;;;0.50;99.90;;;;;;5050836;28;20025;-73
2024/02/07 02:13:02;;;;;;;10.95;4.70;;;0.50;99.90;;;;;;5052427;28;20032;-73
2024/02/07 02:15:28;;;;;;;8.98;4.53;;;0.50;99.90;;;;;;5052716;28;20017;-73
2024/02/07 02:17:54;;;;;;;8.10;5.30;;;0.50;99.90;;;;;;5052082;28;20025;-74
2024/02/07 02:20:20;;;;;;;9.23;5.47;;;0.50;99.90;;;;;;5050643;28;20032;-73
2024/02/07 02:23:01;;;;;;;11.63;3.88;;;0.40;99.90;;;;;;5051654;28;20025;-73
2024/02/07 02:25:36;;;;;;;7.63;3.83;;;0.60;99.90;;;;;;5059663;28;20039;-74
2024/02/07 02:28:31;;;;;;;6.43;3.23;;;0.50;99.90;;;;;;5061027;28;20533;-74
2024/02/07 02:31:01;;;;;;;5.75;3.20;;;0.50;99.90;;;;;;5059242;28;20303;-74
2024/02/07 02:33:30;;;;;;;6.10;3.60;;;0.40;99.90;;;;;;5056134;28;20031;-73
2024/02/07 02:35:58;;;;;;;8.70;4.40;;;0.40;99.90;;;;;;5059803;28;20013;-74
2024/02/07 02:38:27;;;;;;;7.05;3.90;;;0.30;99.90;;;;;;5065158;28;20017;-73
2024/02/07 02:40:54;;;;;;;6.40;3.92;;;0.20;99.90;;;;;;5061796;28;20112;-73
2024/02/07 02:43:22;;;;;;;7.18;3.63;;;0.30;99.90;;;;;;5065308;28;20028;-74
2024/02/07 02:45:49;;;;;;;7.35;3.67;;;0.40;99.90;;;;;;5066638;28;20021;-73
2024/02/07 02:48:14;;;;;;;7.38;3.33;;;0.40;99.90;;;;;;5064454;28;20029;-74
2024/02/07 02:50:40;;;;;;;6.32;4.30;;;0.40;99.90;;;;;;5065360;28;20044;-73
2024/02/07 02:53:06;;;;;;;6.10;3.33;;;0.30;99.90;;;;;;5065685;28;20025;-73
2024/02/07 02:55:32;;;;;;;7.45;3.80;;;0.30;99.90;;;;;;5064729;28;20047;-74
2024/02/07 02:58:02;;;;;;;18.50;4.05;;;0.40;99.90;;;;;;5063575;28;20017;-73
2024/02/07 03:00:30;;;;;;;4.53;3.25;;;0.30;99.90;;;;;;5064675;28;20009;-73
2024/02/07 03:02:56;;;;;;;9.68;4.10;;;0.20;99.90;;;;;;5062156;28;20032;-73
2024/02/07 03:05:45;;;;;;;4.43;3.00;;;0.30;99.90;;;;;;5059982;28;20078;-74
2024/02/07 03:10:44;;;;;;;6.60;4.10;;;0.10;99.90;;;;;;5060454;28;20044;-74
2024/02/07 03:13:10;;;;;;;5.53;3.30;;;0.20;99.90;;;;;;5060891;28;20476;-74
2024/02/07 03:15:36;;;;;;;8.52;4.18;;;0.20;99.90;;;;;;5060423;28;20025;-73
2024/02/07 03:18:02;;;;;;;10.88;4.03;;;0.20;99.90;;;;;;5062346;28;20052;-74
2024/02/07 03:20:28;;;;;;;6.07;3.35;;;0.20;99.90;;;;;;5052854;28;20025;-74
2024/02/07 03:22:54;;;;;;;8.10;4.40;;;0.10;99.90;;;;;;5053261;28;20025;-75
2024/02/07 03:25:20;;;;;;;5.72;3.92;;;0.10;99.90;;;;;;5054522;28;20100;-74
2024/02/07 03:27:49;;;;;;;12.20;4.90;;;0.10;99.90;;;;;;5054516;28;20696;-74
2024/02/07 03:30:22;;;;;;;7.53;3.33;;;0.10;99.90;;;;;;5053983;28;20025;-73
2024/02/07 03:32:49;;;;;;;5.22;3.72;;;0.10;99.90;;;;;;5054220;28;20025;-74
2024/02/07 03:35:15;;;;;;;7.78;3.83;;;0.10;99.90;;;;;;5052918;28;20052;-73
2024/02/07 03:37:41;;;;;;;4.13;3.08;;;0.10;99.90;;;;;;5053029;28;20026;-74
2024/02/07 03:40:13;;;;;;;9.15;3.75;;;0.10;99.90;;;;;;5054200;28;20017;-73
2024/02/07 03:42:43;;;;;;;6.57;3.60;;;0.10;99.90;;;;;;5054400;28;20029;-73
2024/02/07 03:45:16;;;;;;;8.48;4.30;;;0.10;99.90;;;;;;5053156;28;20036;-73
2024/02/07 03:47:43;;;;;;;12.68;3.35;;;0.20;99.90;;;;;;5053031;28;20438;-73
2024/02/07 03:50:12;;;;;;;14.27;4.22;;;0.30;99.90;;;;;;5054071;28;20070;-74
2024/02/07 03:52:48;;;;;;;10.68;5.18;;;0.30;99.90;;;;;;5054169;28;20033;-73
2024/02/07 03:55:14;;;;;;;6.65;4.55;;;0.30;99.90;;;;;;5053908;28;20017;-73
2024/02/07 03:57:43;;;;;;;9.93;4.28;;;0.30;99.90;;;;;;5054187;28;20021;-74
2024/02/07 04:00:13;;;;;;;8.80;3.80;;;0.20;99.90;;;;;;5053865;28;20021;-73
2024/02/07 04:02:40;;;;;;;9.23;4.45;;;0.20;99.90;;;;;;5054860;28;20037;-74
2024/02/07 04:05:07;;;;;;;8.70;3.88;;;0.20;99.90;;;;;;5054632;28;20024;-73
2024/02/07 04:07:33;;;;;;;7.18;4.35;;;0.20;99.90;;;;;;5054103;28;20094;-73
2024/02/07 04:09:59;;;;;;;10.82;4.25;;;0.20;99.90;;;;;;5053529;28;20070;-73
2024/02/07 05:17:20;;;;;;;8.07;3.92;;;-0.10;99.90;;;;;;5052664;28;20018;-73
2024/02/07 05:19:46;;;;;;;12.00;3.85;;;-0.10;99.90;;;;;;5052327;28;20473;-74
2024/02/07 05:22:12;;;;;;;5.43;3.42;;;-0.10;99.90;;;;;;5051189;28;20021;-73
2024/02/07 05:24:39;;;;;;;5.63;3.97;;;-0.20;99.90;;;;;;5052671;28;20143;-74
2024/02/07 05:27:12;;;;;;;10.10;4.05;;;-0.20;99.90;;;;;;5051352;28;20509;-74
2024/02/07 05:29:41;;;;;;;7.05;3.25;;;-0.20;99.90;;;;;;5051401;28;20040;-74
2024/02/07 05:32:07;;;;;;;7.00;3.17;;;-0.20;99.90;;;;;;5052363;28;20064;-73
2024/02/07 05:34:36;;;;;;;6.10;3.83;;;-0.20;99.90;;;;;;5052609;28;20033;-73
2024/02/07 05:37:02;;;;;;;9.95;4.00;;;-0.10;99.90;;;;;;5052728;28;20017;-73
2024/02/07 05:39:33;;;;;;;5.68;3.30;;;-0.10;99.90;;;;;;5052045;28;20025;-73
2024/02/07 05:42:00;;;;;;;7.38;4.60;;;-0.10;99.90;;;;;;5052578;28;20024;-73
2024/02/07 05:44:25;;;;;;;6.07;3.38;;;-0.20;99.90;;;;;;5050744;28;20025;-73
2024/02/07 05:46:51;;;;;;;9.98;5.22;;;-0.20;99.90;;;;;;5051880;28;20025;-74
2024/02/07 05:49:17;;;;;;;10.25;4.00;;;-0.30;99.90;;;;;;5050406;28;20499;-74
2024/02/07 05:51:42;;;;;;;6.70;3.53;;;-0.30;99.90;;;;;;5051740;28;20079;-74
2024/02/07 05:54:08;;;;;;;14.20;7.45;;;-0.40;99.90;;;;;;5052155;28;20499;-74
2024/02/07 05:56:35;;;;;;;7.63;4.43;;;-0.30;99.90;;;;;;5052322;28;20392;-74
2024/02/07 05:59:01;;;;;;;13.85;5.07;;;-0.30;99.90;;;;;;5052214;28;20024;-74
2024/02/07 06:01:27;;;;;;;12.98;6.00;;;-0.30;99.90;;;;;;5051827;28;20048;-74
2024/02/07 06:03:53;;;;;;;9.18;4.78;;;-0.30;99.90;;;;;;5052157;28;20475;-73
2024/02/07 06:06:24;;;;;;;7.28;4.10;;;-0.30;99.90;;;;;;5051940;28;20506;-73
2024/02/07 06:08:51;;;;;;;8.27;4.63;;;-0.40;99.90;;;;;;5050858;28;20032;-74
2024/02/07 06:11:18;;;;;;;7.97;4.57;;;-0.40;99.90;;;;;;5050436;28;20029;-73
2024/02/07 06:13:44;;;;;;;9.70;3.95;;;-0.30;99.90;;;;;;5052122;28;20621;-74
2024/02/07 06:16:09;;;;;;;9.63;4.20;;;-0.20;99.90;;;;;;5054151;28;20434;-73
2024/02/07 06:18:35;;;;;;;7.25;4.35;;;-0.20;99.90;;;;;;5055884;28;20028;-73
2024/02/07 06:21:02;;;;;;;3.38;3.03;;;-0.30;99.90;;;;;;5054333;28;20029;-73
2024/02/07 06:23:28;;;;;;;7.63;3.67;;;-0.20;99.90;;;;;;5055760;28;20475;-74
2024/02/07 06:25:53;;;;;;;7.00;3.95;;;-0.20;99.90;;;;;;5055486;28;20083;-74
2024/02/07 06:28:19;;;;;;;7.07;4.38;;;-0.30;99.90;;;;;;5055398;28;20016;-73
2024/02/07 06:30:45;;;;;;;8.15;4.03;;;-0.40;99.90;;;;;;5053765;28;20379;-74
2024/02/07 06:33:11;;;;;;;7.38;4.07;;;0.50;99.90;;;;;;5055479;28;20483;-75
2024/02/07 06:35:36;;;;;;;10.38;4.32;;;0.20;99.90;;;;;;5052965;28;20044;-74
2024/02/07 06:38:02;;;;;;;8.48;4.28;;;0.00;99.90;;;;;;5056628;28;20021;-74
2024/02/07 06:40:29;;;;;;;9.90;4.63;;;-0.10;99.90;;;;;;5057346;28;20561;-73
2024/02/07 06:42:55;;;;;;;9.15;4.22;;;-0.20;99.90;;;;;;5055485;28;20029;-73
2024/02/07 06:45:20;;;;;;;9.23;4.82;;;-0.20;99.90;;;;;;5054803;28;20017;-73
2024/02/07 06:47:46;;;;;;;9.73;4.55;;;-0.30;99.90;;;;;;5054045;28;20502;-73
2024/02/07 06:50:12;;;;;;;15.65;4.57;;;-0.30;99.90;;;;;;5054792;28;20100;-74
2024/02/07 06:52:39;;;;;;;7.90;5.00;;;-0.30;99.90;;;;;;5054921;28;20033;-73
2024/02/07 06:55:05;;;;;;;7.47;4.07;;;-0.20;99.90;;;;;;5055189;28;20075;-74
2024/02/07 06:57:31;;;;;;;6.93;4.72;;;-0.10;99.90;;;;;;5055006;28;20029;-74
2024/02/07 06:59:56;;;;;;;7.78;4.10;;;-0.10;99.90;;;;;;5055188;28;20099;-74
2024/02/07 07:02:22;;;;;;;6.82;4.65;;;-0.10;99.90;;;;;;5054939;28;20056;-73
2024/02/07 07:04:49;;;;;;;8.55;3.80;;;-0.10;99.90;;;;;;5053589;28;20021;-73
2024/02/07 07:07:14;;;;;;;15.32;5.82;;;0.00;99.90;;;;;;5055132;28;20036;-73
2024/02/07 07:09:40;;;;;;;13.15;4.90;;;0.00;99.90;;;;;;5054674;28;20018;-74
2024/02/07 07:12:06;;;;;;;8.73;4.55;;;0.10;99.90;;;;;;5054856;28;20032;-74
2024/02/07 07:14:32;;;;;;;10.85;4.30;;;0.10;99.90;;;;;;5053375;28;20075;-74
2024/02/07 07:16:57;;;;;;;9.48;4.40;;;0.10;99.90;;;;;;5054577;28;20021;-73
2024/02/07 07:19:23;;;;;;;10.43;5.40;;;0.10;99.90;;;;;;5053361;28;20021;-73
2024/02/07 07:21:48;;;;;;;8.85;5.47;;;0.20;99.90;;;;;;5054665;28;20025;-74
2024/02/07 07:24:14;;;;;;;10.18;5.68;;;0.20;99.90;;;;;;5054529;28;20028;-74
2024/02/07 07:26:40;;;;;;;14.85;7.60;;;0.40;99.90;;;;;;5052972;28;20033;-74
2024/02/07 07:29:05;;;;;;;9.13;5.35;;;0.40;99.90;;;;;;5054628;28;20029;-73
2024/02/07 07:31:34;;;;;;;10.52;4.70;;;0.50;99.90;;;;;;5054584;28;20033;-74
2024/02/07 07:34:00;;;;;;;14.75;5.00;;;0.60;99.90;;;;;;5054167;28;20029;-74
2024/02/07 07:36:27;;;;;;;7.47;4.82;;;0.60;99.90;;;;;;5054526;28;20025;-74
2024/02/07 07:38:54;;;;;;;8.82;4.57;;;0.70;99.90;;;;;;5054029;28;20476;-74
2024/02/07 07:41:20;;;;;;;11.07;5.47;;;0.80;99.90;;;;;;5052858;28;20478;-74
2024/02/07 07:43:45;;;;;;;9.40;4.95;;;0.90;99.90;;;;;;5054875;28;20028;-74
2024/02/07 07:46:12;;;;;;;7.38;4.00;;;1.10;99.90;;;;;;5053047;28;20021;-73
2024/02/07 07:48:37;;;;;;;9.00;4.93;;;2.60;99.90;;;;;;5054081;28;20047;-73
2024/02/07 07:51:06;;;;;;;10.02;6.50;;;3.00;99.90;;;;;;5053692;28;20029;-73
2024/02/07 07:53:32;;;;;;;11.38;6.35;;;4.60;99.90;;;;;;5054251;28;20108;-74
2024/02/07 07:55:57;;;;;;;12.25;6.25;;;5.30;99.90;;;;;;5054296;28;20459;-73
2024/02/07 07:58:23;;;;;;;8.77;5.05;;;5.70;99.90;;;;;;5052954;28;20025;-73
2024/02/07 08:00:49;;;;;;;11.77;5.90;;;5.70;99.90;;;;;;5053446;28;20049;-74
2024/02/07 08:03:14;;;;;;;10.02;6.68;;;6.00;99.90;;;;;;5053815;28;20506;-73
2024/02/07 08:05:41;;;;;;;9.77;5.43;;;6.10;99.90;;;;;;5053612;28;20496;-75
2024/02/07 08:08:07;;;;;;;10.82;4.53;;;6.00;99.90;;;;;;5052514;28;20025;-75
2024/02/07 08:10:34;;;;;;;9.13;5.22;;;5.00;99.90;;;;;;5053347;28;20068;-75
2024/02/07 08:13:00;;;;;;;10.13;5.32;;;4.30;99.90;;;;;;5053776;28;20547;-75
2024/02/07 08:15:25;;;;;;;7.28;4.50;;;3.70;99.90;;;;;;5051908;28;20063;-75
2024/02/07 08:17:51;;;;;;;9.55;4.25;;;3.30;99.90;;;;;;5052176;28;20062;-76
2024/02/07 08:20:18;;;;;;;8.70;5.03;;;3.10;99.90;;;;;;5053161;28;20025;-75
2024/02/07 08:22:43;;;;;;;6.30;4.18;;;3.00;99.90;;;;;;5053439;28;20067;-74
2024/02/07 08:25:09;;;;;;;13.45;5.10;;;3.00;99.90;;;;;;5053647;28;20029;-74
2024/02/07 08:27:35;;;;;;;9.02;4.38;;;3.00;99.90;;;;;;5053458;28;20021;-75
2024/02/07 08:30:01;;;;;;;9.93;4.15;;;3.10;99.90;;;;;;5052939;28;20032;-76
2024/02/07 08:32:27;;;;;;;7.32;4.68;;;3.10;99.90;;;;;;5059434;28;20024;-75
2024/02/07 08:34:52;;;;;;;8.20;4.82;;;3.10;99.90;;;;;;5054817;28;20062;-74
2024/02/07 08:37:21;;;;;;;8.73;4.03;;;3.30;99.90;;;;;;5051550;28;20484;-75
2024/02/07 08:39:47;;;;;;;8.38;4.05;;;3.00;99.90;;;;;;5052881;28;20472;-75
2024/02/07 08:42:13;;;;;;;11.73;4.35;;;3.50;99.90;;;;;;5051903;28;20025;-76
2024/02/07 08:44:38;;;;;;;7.57;4.05;;;3.50;99.90;;;;;;5053095;28;20025;-76
2024/02/07 08:47:04;;;;;;;8.48;4.63;;;3.60;99.90;;;;;;5052993;28;20028;-75
2024/02/07 08:49:30;;;;;;;8.55;3.85;;;3.70;99.90;;;;;;5051523;28;20091;-76
2024/02/07 08:51:55;;;;;;;9.52;4.43;;;3.80;99.90;;;;;;5052599;28;20029;-76
2024/02/07 08:54:21;;;;;;;9.82;4.68;;;3.90;99.90;;;;;;5052784;28;20113;-76
2024/02/07 08:56:46;;;;;;;10.75;4.93;;;4.10;99.90;;;;;;5052850;28;20017;-76
2024/02/07 08:59:12;;;;;;;11.13;5.35;;;4.20;99.90;;;;;;5052939;28;20017;-76
2024/02/07 09:01:38;;;;;;;10.02;5.03;;;4.40;99.90;;;;;;5053151;28;20028;-75
2024/02/07 09:04:03;;;;;;;6.95;3.95;;;4.50;99.90;;;;;;5051610;28;20029;-76
2024/02/07 09:06:29;;;;;;;13.20;5.05;;;4.70;99.90;;;;;;5052858;28;20020;-76
2024/02/07 09:08:55;;;;;;;8.15;4.57;;;4.90;99.90;;;;;;5052894;28;20167;-75
2024/02/07 09:11:20;;;;;;;8.05;3.92;;;5.00;99.90;;;;;;5052348;28;20031;-76
2024/02/07 09:13:46;;;;;;;7.88;4.03;;;5.20;99.90;;;;;;5052585;28;20025;-75
2024/02/07 09:16:12;;;;;;;8.63;4.47;;;5.40;99.90;;;;;;5052920;28;20057;-75
2024/02/07 09:18:38;;;;;;;7.55;4.15;;;5.50;99.90;;;;;;5052715;28;20066;-75
2024/02/07 09:21:04;;;;;;;11.30;4.43;;;5.70;99.90;;;;;;5052238;28;20024;-75
2024/02/07 09:23:31;;;;;;;7.40;3.95;;;5.80;99.90;;;;;;5052392;28;20025;-78
2024/02/07 09:25:56;;;;;;;9.10;4.75;;;6.00;99.90;;;;;;5052723;28;20025;-75
2024/02/07 09:28:22;;;;;;;13.68;4.80;;;6.20;99.90;;;;;;5052148;28;20418;-74
2024/02/07 09:30:47;;;;;;;6.75;3.72;;;6.30;99.90;;;;;;5052129;28;20017;-75
2024/02/07 09:33:14;;;;;;;9.93;4.53;;;6.50;99.90;;;;;;5052538;28;20047;-75
2024/02/07 09:35:41;;;;;;;6.78;4.13;;;6.70;99.90;;;;;;5051195;28;20399;-76
2024/02/07 09:38:07;;;;;;;6.70;4.97;;;6.80;99.90;;;;;;5053135;28;20017;-77
2024/02/07 09:40:32;;;;;;;15.70;8.63;;;7.00;99.90;;;;;;5052432;28;20083;-75
2024/02/07 09:43:00;;;;;;;17.63;6.68;;;7.20;99.90;;;;;;5052671;28;20023;-75
2024/02/07 09:45:31;;;;;;;15.70;5.07;;;7.40;99.90;;;;;;5053583;28;20073;-76
2024/02/07 09:48:09;;;;;;;10.77;5.15;;;7.50;99.90;;;;;;5053761;28;20063;-75
2024/02/07 09:50:35;;;;;;;17.85;8.88;;;7.70;99.90;;;;;;5058099;28;20048;-77
2024/02/07 09:53:01;;;;;;;14.50;6.20;;;7.80;99.90;;;;;;5057909;28;20043;-75
2024/02/07 09:55:28;;;;;;;13.77;6.88;;;8.00;99.90;;;;;;5056520;28;20056;-75
2024/02/07 09:57:55;;;;;;;12.15;5.00;;;8.20;99.90;;;;;;5060575;28;20042;-75
2024/02/07 10:00:21;;;;;;;6.88;5.45;;;8.40;99.90;;;;;;5060361;28;20471;-75
2024/02/07 10:02:49;;;;;;;14.38;6.10;;;8.40;99.90;;;;;;5063420;28;20036;-75
2024/02/07 10:05:19;;;;;;;10.30;6.25;;;8.60;99.90;;;;;;5065639;28;20056;-77
2024/02/07 10:07:49;;;;;;;10.43;5.15;;;8.70;99.90;;;;;;5064727;28;20025;-75
2024/02/07 10:10:15;;;;;;;11.40;5.70;;;8.80;99.90;;;;;;5062064;28;20025;-74
2024/02/07 10:12:41;;;;;;;14.82;5.20;;;9.00;99.90;;;;;;5063366;28;20483;-76
2024/02/07 10:15:09;;;;;;;10.73;6.22;;;9.10;99.90;;;;;;5061224;28;20024;-75
2024/02/07 10:17:34;;;;;;;13.77;6.88;;;9.40;99.90;;;;;;5063198;28;20094;-75
2024/02/07 10:20:11;;;;;;;10.23;5.75;;;9.70;99.90;;;;;;5060462;28;20028;-75
2024/02/07 10:22:40;;;;;;;17.98;10.20;;;9.90;99.90;;;;;;5062200;28;20116;-75
2024/02/07 10:25:16;;;;;;;17.65;11.15;;;10.20;99.90;;;;;;5061863;28;20075;-75
2024/02/07 10:27:42;;;;;;;14.02;6.35;;;10.40;99.90;;;;;;5061309;28;20035;-76
2024/02/07 10:30:09;;;;;;;10.13;5.68;;;10.70;99.90;;;;;;5058999;28;20048;-76
2024/02/07 10:32:36;;;;;;;10.98;6.05;;;10.90;98.50;;;;;;5058064;28;20141;-76
2024/02/07 10:35:03;;;;;;;4.50;3.03;;;11.20;97.60;;;;;;5057967;28;20064;-75
2024/02/07 10:37:38;;;;;;;7.47;2.60;;;11.50;95.50;;;;;;5056547;28;20017;-76
2024/02/07 10:40:04;;;;;;;7.05;2.92;;;11.80;95.10;;;;;;5054727;28;20021;-76
2024/02/07 10:42:30;;;;;;;3.83;2.22;;;12.00;92.80;;;;;;5056008;28;20032;-74
2024/02/07 10:45:06;;;;;;;3.35;2.13;;;12.20;90.80;;;;;;5056404;28;20039;-75
2024/02/07 10:47:33;;;;;;;4.30;2.33;;;12.50;87.40;;;;;;5055683;28;20052;-75
2024/02/07 10:50:00;;;;;;;5.07;2.38;;;12.60;89.40;;;;;;5055977;28;20036;-75
2024/02/07 10:52:26;;;;;;;3.80;2.72;;;12.70;87.60;;;;;;5054697;28;20072;-75
2024/02/07 10:54:53;;;;;;;14.38;4.32;;;12.70;85.80;;;;;;5074526;28;20024;-75
2024/02/07 10:57:26;;;;;;;11.18;5.18;;;12.90;88.50;;;;;;5074303;28;20027;-76
2024/02/07 10:59:53;;;;;;;12.25;6.45;;;12.90;88.40;;;;;;5073981;28;20032;-75
2024/02/07 11:02:20;;;;;;;17.67;7.95;;;13.00;86.40;;;;;;5074402;28;20410;-78
2024/02/07 11:04:46;;;;;;;8.73;5.15;;;13.00;86.00;;;;;;5074551;28;20024;-76
2024/02/07 11:07:14;;;;;;;5.85;2.67;;;13.10;85.00;;;;;;5075788;28;20047;-76
2024/02/07 11:09:45;;;;;;;4.05;2.70;;;13.20;86.00;;;;;;5075875;28;20070;-77
2024/02/07 11:12:15;;;;;;;5.15;2.85;;;13.10;85.40;;;;;;5075894;28;20029;-76
2024/02/07 11:14:45;;;;;;;19.58;10.07;;;13.00;86.50;;;;;;5075562;28;20020;-76
2024/02/07 11:17:16;;;;;;;15.38;7.35;;;12.80;85.90;;;;;;5076237;28;20020;-76
2024/02/07 11:19:43;;;;;;;4.75;3.17;;;12.80;86.00;;;;;;5074174;28;20119;-75
2024/02/07 11:22:16;;;;;;;5.03;2.50;;;12.80;86.20;;;;;;5075231;28;20057;-76
2024/02/07 11:24:44;;;;;;;5.15;2.80;;;12.80;86.30;;;;;;5076277;28;20135;-79
2024/02/07 11:27:12;;;;;;;6.82;2.80;;;12.80;84.60;;;;;;5075378;28;20064;-78
2024/02/07 11:29:40;;;;;;;10.93;3.28;;;12.80;82.90;;;;;;5075178;28;20478;-76
2024/02/07 11:32:09;;;;;;;6.63;3.40;;;12.80;83.80;;;;;;5073981;28;20502;-75
2024/02/07 11:34:40;;;;;;;6.95;3.20;;;12.80;82.80;;;;;;5074178;28;20028;-75
2024/02/07 11:37:10;;;;;;;5.53;2.83;;;12.80;84.00;;;;;;5075226;28;20053;-75
2024/02/07 11:39:41;;;;;;;8.20;2.90;;;12.90;85.50;;;;;;5073285;28;20028;-77
2024/02/07 11:42:15;;;;;;;4.88;2.25;;;12.80;86.70;;;;;;5073681;28;20090;-76
2024/02/07 11:44:52;;;;;;;6.18;3.00;;;12.90;85.70;;;;;;5074896;28;20029;-77
2024/02/07 11:47:42;;;;;;;5.25;3.35;;;12.90;83.70;;;;;;5074792;28;20688;-76
2024/02/07 11:50:12;;;;;;;3.70;2.60;;;12.90;82.00;;;;;;5073314;28;20032;-76
2024/02/07 11:52:40;;;;;;;5.85;2.60;;;13.00;82.40;;;;;;5073022;28;20063;-76
2024/02/07 11:55:16;;;;;;;8.23;2.78;;;13.00;83.90;;;;;;5074434;28;20051;-75
2024/02/07 11:57:44;;;;;;;6.10;2.83;;;13.00;82.30;;;;;;5074512;28;20025;-75
2024/02/07 12:00:18;;;;;;;6.65;4.20;;;13.00;82.50;;;;;;5073147;28;20020;-76
2024/02/07 12:02:57;;;;;;;6.72;3.33;;;13.20;83.40;;;;;;5073442;28;20036;-77
2024/02/07 12:05:24;;;;;;;9.70;4.50;;;13.30;86.40;;;;;;5074344;28;20021;-75
2024/02/07 12:07:50;;;;;;;4.85;2.92;;;13.30;89.90;;;;;;5073116;28;20101;-76
2024/02/07 12:10:16;;;;;;;5.10;2.55;;;13.30;89.20;;;;;;5074127;28;20028;-75
2024/02/07 12:12:43;;;;;;;7.72;3.70;;;13.40;88.70;;;;;;5071789;28;20367;-77
2024/02/07 12:15:09;;;;;;;9.13;2.88;;;13.40;86.80;;;;;;5074112;28;20020;-77
2024/02/07 12:17:35;;;;;;;6.65;2.85;;;13.40;87.20;;;;;;5072798;28;20056;-77
2024/02/07 12:20:04;;;;;;;9.15;3.97;;;13.50;85.50;;;;;;5074039;28;20027;-76
2024/02/07 12:22:35;;;;;;;7.20;3.55;;;13.40;82.90;;;;;;5073728;28;20028;-76
2024/02/07 12:25:02;;;;;;;12.57;3.83;;;13.40;83.00;;;;;;5072552;28;20028;-76
2024/02/07 12:27:28;;;;;;;5.90;3.80;;;13.50;85.60;;;;;;5072624;28;20021;-76
2024/02/07 12:29:57;;;;;;;8.05;4.10;;;13.40;85.30;;;;;;5073546;28;20025;-76
2024/02/07 12:32:23;;;;;;;8.60;4.13;;;13.40;86.70;;;;;;5072547;28;20035;-76
2024/02/07 12:34:50;;;;;;;8.98;4.50;;;13.30;87.30;;;;;;5072502;28;20093;-76
2024/02/07 12:37:18;;;;;;;9.00;4.78;;;13.20;88.40;;;;;;5074021;28;20029;-76
2024/02/07 12:39:47;;;;;;;7.97;4.03;;;13.20;89.90;;;;;;5073377;28;20017;-77
2024/02/07 12:42:21;;;;;;;13.57;6.35;;;13.10;89.10;;;;;;5073355;28;20023;-77
2024/02/07 12:44:50;;;;;;;9.75;3.97;;;13.20;90.10;;;;;;5073805;28;20056;-76
2024/02/07 12:47:17;;;;;;;7.68;3.63;;;13.20;90.20;;;;;;5073750;28;20022;-76
2024/02/07 12:49:44;;;;;;;17.42;7.80;;;13.20;88.80;;;;;;5071560;28;20101;-76
2024/02/07 12:52:12;;;;;;;15.80;7.22;;;13.30;89.00;;;;;;5073252;28;20485;-75
2024/02/07 12:54:39;;;;;;;16.73;10.02;;;13.40;90.10;;;;;;5073342;28;20028;-75
2024/02/07 12:57:05;;;;;;;13.95;7.95;;;13.40;90.40;;;;;;5071821;28;20021;-76
2024/02/07 12:59:34;;;;;;;5.60;5.10;;;13.40;90.40;;;;;;5073149;28;20017;-75
2024/02/07 13:02:07;;;;;;;5.18;3.40;;;13.40;86.90;;;;;;5073085;28;20021;-77
2024/02/07 13:04:33;;;;;;;9.85;5.50;;;13.40;86.80;;;;;;5073103;28;20020;-76
2024/02/07 13:06:59;;;;;;;9.02;7.45;;;13.30;88.00;;;;;;5072947;28;20437;-76
2024/02/07 13:09:28;;;;;;;5.13;3.70;;;13.40;87.90;;;;;;5070904;28;20059;-76
2024/02/07 13:11:57;;;;;;;4.53;2.88;;;13.40;83.50;;;;;;5071690;28;20052;-76
2024/02/07 13:14:23;;;;;;;3.67;2.70;;;13.40;80.10;;;;;;5073105;28;20060;-77
2024/02/07 13:16:52;;;;;;;4.30;2.30;;;13.40;77.80;;;;;;5073021;28;20048;-75
2024/02/07 13:19:18;;;;;;;4.45;2.05;;;13.40;71.70;;;;;;5071285;28;20043;-75
2024/02/07 13:21:45;;;;;;;5.05;2.10;;;13.50;70.50;;;;;;5072492;28;20479;-75
2024/02/07 13:24:18;;;;;;;5.30;2.70;;;13.50;68.00;;;;;;5072673;28;20040;-75
2024/02/07 13:26:48;;;;;;;4.38;2.28;;;13.50;67.70;;;;;;5073356;28;20433;-76
2024/02/07 13:29:15;;;;;;;2.38;1.90;;;13.50;67.10;;;;;;5072688;28;20027;-77
2024/02/07 13:31:41;;;;;;;6.50;3.10;;;13.50;66.90;;;;;;5072642;28;20021;-76
2024/02/07 13:34:12;;;;;;;5.03;2.05;;;13.40;67.00;;;;;;5071445;28;20170;-74
2024/02/07 13:36:39;;;;;;;6.70;2.38;;;13.40;66.40;;;;;;5072607;28;20556;-76
2024/02/07 13:39:06;;;;;;;5.40;3.05;;;13.50;66.90;;;;;;5072922;28;20032;-75
2024/02/07 13:41:32;;;;;;;4.53;2.95;;;13.40;66.60;;;;;;5071407;28;20082;-76
2024/02/07 13:43:58;;;;;;;3.53;2.03;;;13.40;67.30;;;;;;5072989;28;20035;-76
2024/02/07 13:46:24;;;;;;;3.50;2.00;;;13.40;66.90;;;;;;5072718;28;20032;-76
2024/02/07 13:48:52;;;;;;;5.55;3.70;;;13.30;66.70;;;;;;5072292;28;20033;-76
2024/02/07 13:51:18;;;;;;;4.47;2.30;;;13.40;65.90;;;;;;5071196;28;20036;-75
2024/02/07 13:53:43;;;;;;;6.13;2.45;;;13.30;66.70;;;;;;5072546;28;20028;-76
2024/02/07 13:56:09;;;;;;;3.30;2.30;;;13.20;66.50;;;;;;5073023;28;20016;-75
2024/02/07 13:58:35;;;;;;;2.70;2.10;;;13.20;66.30;;;;;;5071236;28;20024;-75